createdAt,value
2018-05-01T00:01:05.571Z,12.90
2018-05-01T00:03:31.715Z,13.00
2018-05-01T00:05:57.807Z,13.00
2018-05-01T00:08:23.941Z,13.20
2018-05-01T00:10:50.010Z,13.20
2018-05-01T00:13:16.823Z,13.20
2018-05-01T00:15:42.930Z,13.20
2018-05-01T00:18:09.008Z,13.10
2018-05-01T00:20:35.093Z,13.00
2018-05-01T00:23:01.196Z,13.00
2018-05-01T00:25:27.322Z,13.00
2018-05-01T00:27:53.431Z,13.00
2018-05-01T00:30:19.526Z,12.90
2018-05-01T00:32:46.376Z,12.90
2018-05-01T00:35:13.238Z,13.00
2018-05-01T00:37:40.087Z,12.90
2018-05-01T00:40:07.007Z,13.00
2018-05-01T00:42:33.107Z,13.00
2018-05-01T00:44:59.213Z,13.00
2018-05-01T00:47:26.108Z,13.20
2018-05-01T00:49:52.143Z,13.20
2018-05-01T00:52:30.603Z,13.40
2018-05-01T00:54:56.695Z,13.40
2018-05-01T00:57:22.882Z,13.40
2018-05-01T00:59:49.055Z,13.30
2018-05-01T01:02:15.903Z,13.10
2018-05-01T01:04:42.739Z,13.10
2018-05-01T01:07:08.934Z,13.00
2018-05-01T01:09:35.105Z,13.10
2018-05-01T01:12:01.239Z,13.10
2018-05-01T01:14:27.355Z,13.20
2018-05-01T01:16:55.048Z,13.40
2018-05-01T01:19:21.134Z,13.60
2018-05-01T01:21:49.148Z,13.90
2018-05-01T01:24:15.231Z,13.90
2018-05-01T01:26:41.410Z,14.20
2018-05-01T01:29:07.530Z,14.20
2018-05-01T01:31:34.360Z,14.20
2018-05-01T01:34:00.563Z,14.20
2018-05-01T01:36:26.539Z,14.20
2018-05-01T01:38:52.498Z,14.10
2018-05-01T01:41:19.195Z,13.80
2018-05-01T01:43:45.190Z,13.80
2018-05-01T01:46:11.214Z,13.80
2018-05-01T01:48:37.927Z,13.50
2018-05-01T01:51:03.891Z,13.40
2018-05-01T01:53:29.871Z,13.30
2018-05-01T01:55:55.834Z,13.40
2018-05-01T01:58:21.807Z,13.30
2018-05-01T02:00:48.555Z,13.30
2018-05-01T02:03:15.242Z,13.30
2018-05-01T02:05:41.226Z,13.30
2018-05-01T02:08:07.171Z,13.40
2018-05-01T02:10:34.040Z,13.30
2018-05-01T02:13:00.031Z,13.20
2018-05-01T02:15:25.995Z,13.30
2018-05-01T02:17:52.674Z,13.30
2018-05-01T02:20:18.630Z,13.20
2018-05-01T02:22:44.581Z,13.20
2018-05-01T02:25:10.531Z,13.20
2018-05-01T02:27:36.560Z,13.20
2018-05-01T02:30:02.524Z,13.20
2018-05-01T02:32:29.211Z,13.00
2018-05-01T02:34:55.170Z,13.00
2018-05-01T02:37:21.128Z,13.00
2018-05-01T02:39:47.075Z,13.00
2018-05-01T02:42:13.788Z,13.10
2018-05-01T02:44:39.747Z,13.10
2018-05-01T02:47:05.703Z,13.10
2018-05-01T02:49:32.436Z,13.10
2018-05-01T02:51:58.416Z,13.10
2018-05-01T02:54:24.375Z,13.20
2018-05-01T02:56:50.488Z,13.10
2018-05-01T02:59:16.388Z,13.20
2018-05-01T03:01:43.102Z,13.30
2018-05-01T03:04:09.086Z,13.20
2018-05-01T03:06:35.790Z,13.40
2018-05-01T03:09:01.763Z,13.30
2018-05-01T03:11:28.494Z,13.40
2018-05-01T03:13:54.487Z,13.40
2018-05-01T03:16:20.459Z,13.50
2018-05-01T03:18:46.419Z,13.70
2018-05-01T03:21:13.170Z,13.50
2018-05-01T03:23:39.906Z,13.50
2018-05-01T03:26:05.845Z,13.50
2018-05-01T03:28:31.886Z,13.40
2018-05-01T03:30:57.841Z,13.40
2018-05-01T03:33:23.777Z,13.30
2018-05-01T03:35:49.744Z,13.30
2018-05-01T03:38:15.686Z,13.20
2018-05-01T03:40:41.659Z,13.20
2018-05-01T03:43:07.610Z,13.20
2018-05-01T03:45:33.553Z,13.20
2018-05-01T03:47:59.578Z,13.40
2018-05-01T03:50:26.266Z,13.50
2018-05-01T03:52:52.230Z,13.50
2018-05-01T03:55:18.166Z,13.60
2018-05-01T03:57:44.117Z,13.70
2018-05-01T04:00:10.901Z,13.90
2018-05-01T04:02:36.842Z,13.80
2018-05-01T04:05:02.810Z,13.80
2018-05-01T04:07:28.754Z,13.80
2018-05-01T04:09:54.691Z,13.70
2018-05-01T04:12:20.890Z,13.60
2018-05-01T04:14:46.856Z,13.50
2018-05-01T04:17:12.826Z,13.50
2018-05-01T04:19:38.765Z,13.40
2018-05-01T04:22:04.707Z,13.30
2018-05-01T04:24:30.745Z,13.20
2018-05-01T04:26:56.757Z,13.20
2018-05-01T04:29:22.806Z,13.00
2018-05-01T04:31:49.490Z,13.10
2018-05-01T04:34:15.425Z,13.10
2018-05-01T04:36:41.418Z,13.20
2018-05-01T04:39:07.530Z,13.30
2018-05-01T04:41:33.593Z,13.30
2018-05-01T04:44:00.273Z,13.30
2018-05-01T04:46:26.206Z,13.30
2018-05-01T04:48:52.173Z,13.30
2018-05-01T04:51:18.117Z,13.40
2018-05-01T04:53:44.080Z,13.30
2018-05-01T04:56:10.750Z,13.50
2018-05-01T04:58:36.704Z,13.40
2018-05-01T05:01:02.678Z,13.60
2018-05-01T05:03:28.611Z,13.70
2018-05-01T05:05:54.608Z,13.80
2018-05-01T05:08:20.574Z,13.80
2018-05-01T05:10:46.515Z,13.70
2018-05-01T05:13:13.226Z,13.90
2018-05-01T05:15:39.236Z,13.80
2018-05-01T05:18:05.587Z,13.80
2018-05-01T05:20:31.526Z,13.90
2018-05-01T05:22:57.459Z,14.10
2018-05-01T05:25:23.443Z,14.10
2018-05-01T05:27:49.386Z,14.20
2018-05-01T05:30:15.377Z,14.20
2018-05-01T05:32:41.328Z,14.20
2018-05-01T05:35:07.306Z,14.20
2018-05-01T05:37:34.018Z,14.20
2018-05-01T05:40:00.008Z,14.10
2018-05-01T05:42:25.989Z,14.10
2018-05-01T05:44:58.974Z,14.00
2018-05-01T05:47:24.950Z,14.10
2018-05-01T05:49:51.725Z,14.40
2018-05-01T05:52:18.411Z,14.50
2018-05-01T05:54:44.398Z,14.50
2018-05-01T05:57:10.350Z,14.50
2018-05-01T05:59:36.335Z,14.60
2018-05-01T06:02:02.313Z,14.70
2018-05-01T06:04:29.393Z,14.70
2018-05-01T06:06:55.375Z,14.60
2018-05-01T06:09:21.318Z,14.80
2018-05-01T06:11:47.286Z,15.20
2018-05-01T06:14:13.266Z,15.30
2018-05-01T06:16:39.209Z,15.60
2018-05-01T06:19:05.183Z,16.10
2018-05-01T06:21:32.834Z,15.90
2018-05-01T06:23:58.885Z,15.80
2018-05-01T06:26:25.608Z,16.40
2018-05-01T06:28:51.557Z,16.40
2018-05-01T06:31:18.219Z,16.50
2018-05-01T06:33:44.139Z,17.00
2018-05-01T06:36:10.118Z,17.30
2018-05-01T06:38:36.103Z,17.30
2018-05-01T06:41:02.046Z,17.50
2018-05-01T06:43:28.103Z,16.80
2018-05-01T06:45:54.058Z,17.20
2018-05-01T06:48:20.043Z,17.30
2018-05-01T06:50:46.573Z,17.80
2018-05-01T06:53:12.498Z,17.30
2018-05-01T06:55:38.495Z,16.80
2018-05-01T06:58:04.497Z,17.30
2018-05-01T07:00:30.437Z,17.10
2018-05-01T07:02:56.536Z,17.10
2018-05-01T07:05:22.500Z,17.30
2018-05-01T07:07:48.544Z,17.30
2018-05-01T07:10:14.652Z,17.60
2018-05-01T07:12:40.554Z,17.50
2018-05-01T07:15:06.552Z,16.70
2018-05-01T07:17:33.538Z,17.10
2018-05-01T07:19:59.547Z,17.10
2018-05-01T07:22:26.510Z,17.20
2018-05-01T07:24:52.510Z,17.20
2018-05-01T07:27:18.454Z,18.00
2018-05-01T07:29:44.502Z,18.00
2018-05-01T07:32:10.542Z,18.80
2018-05-01T07:34:37.297Z,19.60
2018-05-01T07:37:03.983Z,18.10
2018-05-01T07:39:29.987Z,18.10
2018-05-01T07:41:56.733Z,17.80
2018-05-01T07:44:22.698Z,17.80
2018-05-01T07:46:48.644Z,17.60
2018-05-01T07:49:14.590Z,16.90
2018-05-01T07:51:40.814Z,16.40
2018-05-01T07:54:06.785Z,16.50
2018-05-01T07:56:32.782Z,17.60
2018-05-01T07:58:58.727Z,17.40
2018-05-01T08:01:24.728Z,17.20
2018-05-01T08:03:51.490Z,17.30
2018-05-01T08:06:17.431Z,17.20
2018-05-01T08:08:43.398Z,16.90
2018-05-01T08:11:09.342Z,16.60
2018-05-01T08:13:35.302Z,16.30
2018-05-01T08:16:01.270Z,15.90
2018-05-01T08:18:27.266Z,16.00
2018-05-01T08:20:53.248Z,15.80
2018-05-01T08:23:19.187Z,15.70
2018-05-01T08:25:45.122Z,16.40
2018-05-01T08:28:11.101Z,16.30
2018-05-01T08:30:37.162Z,16.30
2018-05-01T08:33:04.036Z,15.60
2018-05-01T08:35:30.001Z,15.60
2018-05-01T08:37:56.002Z,15.70
2018-05-01T08:40:21.988Z,15.90
2018-05-01T08:42:47.917Z,16.40
2018-05-01T08:45:13.974Z,16.00
2018-05-01T08:47:40.766Z,15.90
2018-05-01T08:50:06.774Z,15.90
2018-05-01T08:52:33.491Z,15.60
2018-05-01T08:54:59.616Z,15.60
2018-05-01T08:57:25.659Z,15.60
2018-05-01T08:59:51.630Z,15.70
2018-05-01T09:02:18.355Z,16.10
2018-05-01T09:04:44.416Z,16.10
2018-05-01T09:07:10.492Z,17.00
2018-05-01T09:09:36.556Z,17.00
2018-05-01T09:12:03.166Z,17.20
2018-05-01T09:14:29.187Z,17.20
2018-05-01T09:16:55.979Z,17.10
2018-05-01T09:19:21.863Z,17.00
2018-05-01T09:21:48.003Z,18.20
2018-05-01T09:24:13.986Z,19.10
2018-05-01T09:26:39.958Z,20.70
2018-05-01T09:29:06.731Z,18.90
2018-05-01T09:31:33.447Z,19.40
2018-05-01T09:33:59.436Z,19.40
2018-05-01T09:36:25.388Z,19.10
2018-05-01T09:38:51.338Z,19.50
2018-05-01T09:41:17.364Z,19.30
2018-05-01T09:43:43.313Z,19.40
2018-05-01T09:46:09.294Z,19.50
2018-05-01T09:48:35.986Z,19.50
2018-05-01T09:51:01.914Z,19.50
2018-05-01T09:53:28.063Z,19.30
2018-05-01T09:55:54.134Z,19.50
2018-05-01T09:58:20.232Z,18.70
2018-05-01T10:00:46.351Z,18.30
2018-05-01T10:03:12.436Z,20.00
2018-05-01T10:05:38.546Z,20.60
2018-05-01T10:08:04.657Z,20.70
2018-05-01T10:10:30.841Z,20.60
2018-05-01T10:12:57.065Z,19.50
2018-05-01T10:15:23.157Z,19.30
2018-05-01T10:20:43.826Z,19.80
2018-05-01T10:23:10.035Z,19.80
2018-05-01T10:25:36.854Z,20.60
2018-05-01T10:28:02.955Z,20.60
2018-05-01T10:30:29.087Z,21.10
2018-05-01T10:32:55.259Z,19.60
2018-05-01T10:35:21.364Z,19.70
2018-05-01T10:37:47.475Z,19.50
2018-05-01T10:40:13.597Z,19.90
2018-05-01T10:42:39.788Z,19.50
2018-05-01T10:45:05.939Z,20.00
2018-05-01T10:47:32.074Z,20.00
2018-05-01T10:49:58.207Z,21.20
2018-05-01T10:52:24.302Z,20.40
2018-05-01T10:54:51.138Z,20.70
2018-05-01T10:57:17.299Z,20.70
2018-05-01T10:59:44.111Z,21.00
2018-05-01T11:02:10.498Z,21.00
2018-05-01T11:04:37.409Z,20.40
2018-05-01T11:07:03.537Z,20.40
2018-05-01T11:09:29.644Z,21.00
2018-05-01T11:11:56.676Z,20.90
2018-05-01T11:14:22.655Z,20.90
2018-05-01T11:16:48.738Z,21.80
2018-05-01T11:19:14.811Z,20.10
2018-05-01T11:21:41.681Z,20.50
2018-05-01T11:24:07.762Z,20.50
2018-05-01T11:26:33.880Z,20.30
2018-05-01T11:28:59.957Z,21.30
2018-05-01T11:31:26.040Z,21.70
2018-05-01T11:33:52.185Z,21.20
2018-05-01T11:36:18.299Z,21.10
2018-05-01T11:38:44.392Z,20.90
2018-05-01T11:41:10.454Z,21.70
2018-05-01T11:43:36.524Z,21.20
2018-05-01T11:46:02.607Z,20.50
2018-05-01T11:48:28.664Z,20.40
2018-05-01T11:50:54.759Z,20.10
2018-05-01T11:53:20.831Z,20.60
2018-05-01T11:55:46.934Z,20.60
2018-05-01T11:58:13.032Z,20.80
2018-05-01T12:00:39.113Z,20.30
2018-05-01T12:03:05.224Z,20.20
2018-05-01T12:05:31.690Z,21.10
2018-05-01T12:07:57.755Z,21.30
2018-05-01T12:10:23.826Z,21.40
2018-05-01T12:12:50.693Z,21.30
2018-05-01T12:15:16.792Z,21.30
2018-05-01T12:17:56.676Z,20.60
2018-05-01T12:20:23.805Z,21.10
2018-05-01T12:22:51.030Z,21.40
2018-05-01T12:25:19.378Z,22.30
2018-05-01T12:27:46.962Z,22.30
2018-05-01T12:30:15.874Z,21.00
2018-05-01T12:32:47.306Z,21.90
2018-05-01T12:35:15.472Z,21.10
2018-05-01T12:37:41.762Z,21.00
2018-05-01T12:40:07.868Z,20.80
2018-05-01T12:42:34.026Z,20.60
2018-05-01T12:45:00.971Z,18.20
2018-05-01T12:47:27.095Z,18.20
2018-05-01T12:49:53.330Z,19.00
2018-05-01T12:52:19.793Z,19.40
2018-05-01T12:54:47.776Z,19.60
2018-05-01T12:57:14.301Z,20.20
2018-05-01T12:59:41.175Z,20.30
2018-05-01T13:02:07.297Z,20.30
2018-05-01T13:04:33.463Z,19.80
2018-05-01T13:06:59.640Z,19.80
2018-05-01T13:09:25.764Z,20.50
2018-05-01T13:11:51.874Z,20.30
2018-05-01T13:14:18.037Z,19.40
2018-05-01T13:16:45.014Z,19.90
2018-05-01T13:19:12.897Z,19.90
2018-05-01T13:21:39.065Z,19.80
2018-05-01T13:24:05.284Z,20.10
2018-05-01T13:26:31.719Z,20.10
2018-05-01T13:28:58.150Z,20.30
2018-05-01T13:31:24.335Z,20.00
2018-05-01T13:33:50.453Z,20.40
2018-05-01T13:36:16.663Z,20.50
2018-05-01T13:38:43.643Z,19.50
2018-05-01T13:41:10.094Z,19.40
2018-05-01T13:43:36.323Z,19.50
2018-05-01T13:46:02.422Z,20.10
2018-05-01T13:48:28.598Z,19.70
2018-05-01T13:50:54.702Z,19.60
2018-05-01T13:53:20.800Z,19.60
2018-05-01T13:55:47.054Z,18.90
2018-05-01T13:58:13.245Z,19.40
2018-05-01T14:00:40.226Z,19.30
2018-05-01T14:03:06.611Z,19.30
2018-05-01T14:05:32.750Z,19.10
2018-05-01T14:07:58.839Z,19.40
2018-05-01T14:10:24.935Z,19.40
2018-05-01T14:12:51.043Z,19.50
2018-05-01T14:15:17.181Z,19.80
2018-05-01T14:17:43.325Z,19.50
2018-05-01T14:20:09.652Z,19.20
2018-05-01T14:22:35.754Z,18.80
2018-05-01T14:25:02.614Z,19.30
2018-05-01T14:27:29.446Z,18.80
2018-05-01T14:29:55.530Z,18.80
2018-05-01T14:32:21.636Z,19.00
2018-05-01T14:34:47.733Z,18.20
2018-05-01T14:37:13.932Z,17.90
2018-05-01T14:39:40.051Z,17.40
2018-05-01T14:42:06.174Z,17.10
2018-05-01T14:44:32.267Z,17.10
2018-05-01T14:46:58.457Z,17.40
2018-05-01T14:49:24.581Z,17.20
2018-05-01T14:51:51.481Z,17.10
2018-05-01T14:54:17.586Z,16.50
2018-05-01T14:56:43.707Z,17.20
2018-05-01T14:59:09.824Z,17.50
2018-05-01T15:01:36.027Z,18.20
2018-05-01T15:04:02.856Z,17.30
2018-05-01T15:06:29.717Z,17.30
2018-05-01T15:08:56.626Z,17.60
2018-05-01T15:11:23.433Z,17.10
2018-05-01T15:13:50.773Z,17.30
2018-05-01T15:16:16.922Z,17.30
2018-05-01T15:18:43.012Z,17.50
2018-05-01T15:21:09.088Z,17.60
2018-05-01T15:23:35.214Z,16.50
2018-05-01T15:26:01.320Z,16.70
2018-05-01T15:28:27.402Z,16.70
2018-05-01T15:30:53.562Z,16.30
2018-05-01T15:33:19.666Z,16.30
2018-05-01T15:35:45.745Z,16.50
2018-05-01T15:38:12.627Z,17.00
2018-05-01T15:40:38.727Z,17.00
2018-05-01T15:43:04.795Z,17.20
2018-05-01T15:45:31.647Z,16.70
2018-05-01T15:47:58.488Z,16.40
2018-05-01T15:50:25.310Z,16.60
2018-05-01T15:52:51.431Z,16.60
2018-05-01T15:55:17.613Z,16.80
2018-05-01T15:57:43.687Z,16.70
2018-05-01T16:00:09.792Z,16.50
2018-05-01T16:02:36.650Z,15.90
2018-05-01T16:05:03.498Z,15.80
2018-05-01T16:10:28.029Z,16.10
2018-05-01T16:12:54.149Z,16.00
2018-05-01T16:15:20.253Z,16.10
2018-05-01T16:17:46.338Z,16.00
2018-05-01T16:20:12.474Z,16.00
2018-05-01T16:22:38.548Z,16.00
2018-05-01T16:25:04.631Z,15.80
2018-05-01T16:27:30.742Z,15.90
2018-05-01T16:29:56.854Z,15.80
2018-05-01T16:32:22.996Z,15.60
2018-05-01T16:34:49.918Z,15.60
2018-05-01T16:37:16.022Z,15.60
2018-05-01T16:39:42.348Z,15.60
2018-05-01T16:42:08.444Z,15.70
2018-05-01T16:44:34.548Z,15.60
2018-05-01T16:47:00.628Z,15.70
2018-05-01T16:49:27.514Z,15.60
2018-05-01T16:51:53.624Z,15.60
2018-05-01T16:54:20.439Z,15.40
2018-05-01T16:56:46.571Z,15.30
2018-05-01T16:59:12.690Z,15.50
2018-05-01T17:01:38.777Z,15.50
2018-05-01T17:04:04.889Z,15.40
2018-05-01T17:06:30.971Z,15.50
2018-05-01T17:08:57.771Z,15.20
2018-05-01T17:11:23.862Z,15.20
2018-05-01T17:13:50.687Z,15.00
2018-05-01T17:16:16.794Z,15.00
2018-05-01T17:18:43.184Z,15.00
2018-05-01T17:21:09.261Z,15.10
2018-05-01T17:23:35.352Z,15.00
2018-05-01T17:26:01.443Z,15.00
2018-05-01T17:28:27.534Z,15.10
2018-05-01T17:30:54.639Z,15.00
2018-05-01T17:33:20.728Z,15.00
2018-05-01T17:35:46.857Z,15.00
2018-05-01T17:38:13.001Z,15.00
2018-05-01T17:40:39.848Z,15.00
2018-05-01T17:43:06.002Z,14.90
2018-05-01T17:45:32.243Z,15.00
2018-05-01T17:47:58.362Z,14.90
2018-05-01T17:50:24.541Z,14.80
2018-05-01T17:52:51.971Z,14.60
2018-05-01T17:55:18.187Z,14.60
2018-05-01T17:57:44.331Z,14.60
2018-05-01T18:00:10.550Z,14.60
2018-05-01T18:02:36.964Z,14.50
2018-05-01T18:05:03.822Z,14.40
2018-05-01T18:07:30.633Z,14.30
2018-05-01T18:09:56.931Z,14.30
2018-05-01T18:12:23.803Z,14.10
2018-05-01T18:14:49.903Z,14.10
2018-05-01T18:17:16.201Z,14.00
2018-05-01T18:19:42.314Z,13.90
2018-05-01T18:22:08.386Z,14.00
2018-05-01T18:24:34.508Z,13.80
2018-05-01T18:27:00.665Z,13.70
2018-05-01T18:29:26.825Z,13.70
2018-05-01T18:31:53.000Z,13.80
2018-05-01T18:34:19.872Z,13.70
2018-05-01T18:36:46.039Z,13.60
2018-05-01T18:39:12.198Z,13.60
2018-05-01T18:41:38.654Z,13.40
2018-05-01T18:44:05.191Z,13.30
2018-05-01T18:46:31.446Z,13.20
2018-05-01T18:48:57.644Z,13.20
2018-05-01T18:51:24.666Z,13.10
2018-05-01T18:53:50.871Z,13.10
2018-05-01T18:56:17.072Z,13.00
2018-05-01T18:58:43.360Z,13.00
2018-05-01T19:01:11.149Z,12.90
2018-05-01T19:03:37.391Z,12.90
2018-05-01T19:06:04.312Z,12.60
2018-05-01T19:08:30.440Z,12.60
2018-05-01T19:10:56.679Z,12.50
2018-05-01T19:13:22.828Z,12.50
2018-05-01T19:15:48.961Z,12.50
2018-05-01T19:18:15.253Z,12.40
2018-05-01T19:20:42.085Z,12.40
2018-05-01T19:23:08.159Z,12.30
2018-05-01T19:25:35.041Z,12.30
2018-05-01T19:28:01.119Z,12.20
2018-05-01T19:30:27.240Z,12.20
2018-05-01T19:32:53.593Z,12.20
2018-05-01T19:35:19.674Z,12.40
2018-05-01T19:37:46.584Z,12.30
2018-05-01T19:40:12.821Z,12.20
2018-05-01T19:42:38.939Z,12.30
2018-05-01T19:45:05.050Z,12.30
2018-05-01T19:47:31.877Z,12.30
2018-05-01T19:49:57.966Z,12.30
2018-05-01T19:52:24.143Z,12.40
2018-05-01T19:54:50.287Z,12.40
2018-05-01T19:57:16.415Z,12.60
2018-05-01T19:59:42.678Z,12.40
2018-05-01T20:02:09.725Z,12.30
2018-05-01T20:04:35.904Z,12.20
2018-05-01T20:07:02.052Z,12.10
2018-05-01T20:09:28.986Z,12.10
2018-05-01T20:11:55.163Z,12.00
2018-05-01T20:14:21.606Z,12.10
2018-05-01T20:16:47.713Z,12.00
2018-05-01T20:19:19.239Z,12.10
2018-05-01T20:21:45.565Z,12.10
2018-05-01T20:24:11.704Z,12.30
2018-05-01T20:26:37.830Z,12.30
2018-05-01T20:29:03.964Z,12.40
2018-05-01T20:31:35.887Z,12.30
2018-05-01T20:34:03.351Z,12.20
2018-05-01T20:36:29.771Z,12.20
2018-05-01T20:38:58.244Z,12.10
2018-05-01T20:41:26.748Z,12.00
2018-05-01T20:43:53.592Z,11.80
2018-05-01T20:46:22.871Z,11.70
2018-05-01T20:48:49.245Z,11.90
2018-05-01T20:51:15.413Z,12.20
2018-05-01T20:53:41.767Z,12.00
2018-05-01T20:56:08.235Z,12.00
2018-05-01T20:58:34.733Z,12.00
2018-05-01T21:01:01.610Z,11.90
2018-05-01T21:03:28.321Z,11.80
2018-05-01T21:05:55.133Z,11.70
2018-05-01T21:08:21.377Z,11.90
2018-05-01T21:10:47.968Z,11.80
2018-05-01T21:13:16.124Z,11.70
2018-05-01T21:15:44.319Z,11.70
2018-05-01T21:18:10.466Z,11.70
2018-05-01T21:20:38.127Z,11.50
2018-05-01T21:23:04.236Z,11.50
2018-05-01T21:25:30.715Z,11.50
2018-05-01T21:27:56.866Z,11.50
2018-05-01T21:30:22.965Z,11.60
2018-05-01T21:32:49.705Z,11.50
2018-05-01T21:35:15.979Z,11.40
2018-05-01T21:37:42.372Z,11.50
2018-05-01T21:40:08.475Z,11.40
2018-05-01T21:42:34.648Z,11.40
2018-05-01T21:45:01.760Z,11.50
2018-05-01T21:47:27.827Z,11.50
2018-05-01T21:49:54.099Z,11.50
2018-05-01T21:52:20.343Z,11.50
2018-05-01T21:54:47.438Z,11.30
2018-05-01T21:57:13.982Z,11.30
2018-05-01T21:59:40.167Z,11.20
2018-05-01T22:02:06.293Z,11.20
2018-05-01T22:04:32.396Z,11.20
2018-05-01T22:06:58.524Z,11.10
2018-05-01T22:09:24.607Z,11.10
2018-05-01T22:11:50.754Z,11.10
2018-05-01T22:14:18.137Z,11.00
2018-05-01T22:16:44.367Z,11.00
2018-05-01T22:19:10.745Z,10.90
2018-05-01T22:21:36.832Z,10.80
2018-05-01T22:24:02.926Z,10.80
2018-05-01T22:26:29.091Z,10.70
2018-05-01T22:28:55.186Z,10.80
2018-05-01T22:31:22.001Z,10.70
2018-05-01T22:33:48.090Z,10.70
2018-05-01T22:36:14.185Z,10.70
2018-05-01T22:38:40.252Z,10.70
2018-05-01T22:41:07.099Z,10.50
2018-05-01T22:43:33.418Z,10.50
2018-05-01T22:45:59.471Z,10.50
2018-05-01T22:48:25.682Z,10.40
2018-05-01T22:50:51.746Z,10.40
2018-05-01T22:53:17.815Z,10.20
2018-05-01T22:55:43.912Z,10.10
2018-05-01T22:58:09.984Z,10.10
2018-05-01T23:00:36.056Z,10.10
2018-05-01T23:03:02.277Z,10.20
2018-05-01T23:05:28.417Z,10.00
2018-05-01T23:07:54.478Z,9.90
2018-05-01T23:10:21.315Z,9.80
2018-05-01T23:12:47.394Z,9.80
2018-05-01T23:15:14.553Z,9.90
2018-05-01T23:17:40.823Z,9.90
2018-05-01T23:20:07.696Z,9.90
2018-05-01T23:22:33.827Z,9.80
2018-05-01T23:24:59.916Z,9.80
2018-05-01T23:27:25.998Z,9.80
2018-05-01T23:29:52.826Z,9.70
2018-05-01T23:32:19.051Z,9.70
2018-05-01T23:34:45.171Z,9.70
2018-05-01T23:37:11.234Z,9.60
2018-05-01T23:39:37.335Z,9.60
2018-05-01T23:42:04.027Z,9.60
2018-05-01T23:44:30.126Z,9.60
2018-05-01T23:46:56.252Z,9.60
2018-05-01T23:49:22.314Z,9.60
2018-05-01T23:51:48.430Z,9.50
2018-05-01T23:54:15.581Z,9.40
2018-05-01T23:56:41.851Z,9.40
2018-05-01T23:59:07.929Z,9.50
